sensor_id;sensor_type;location;lat;lon;timestamp;temperature;humidity
36654;DHT22;22650;49.350;20.898;2023-07-02T02:24:04;19.00;99.90
36654;DHT22;22650;49.350;20.898;2023-07-02T02:55:53;18.90;99.90
36654;DHT22;22650;49.350;20.898;2023-07-02T02:58:30;18.90;99.90
36654;DHT22;22650;49.350;20.898;2023-07-02T03:06:23;18.90;99.90
36654;DHT22;22650;49.350;20.898;2023-07-02T06:17:39;19.80;99.90
36654;DHT22;22650;49.350;20.898;2023-07-02T08:14:10;24.80;99.90
36654;DHT22;22650;49.350;20.898;2023-07-02T08:16:50;25.10;99.90
36654;DHT22;22650;49.350;20.898;2023-07-02T08:19:39;25.30;99.90
36654;DHT22;22650;49.350;20.898;2023-07-02T08:23:21;25.60;99.90
36654;DHT22;22650;49.350;20.898;2023-07-02T08:30:46;26.10;99.90
36654;DHT22;22650;49.350;20.898;2023-07-02T08:33:22;26.30;99.90
36654;DHT22;22650;49.350;20.898;2023-07-02T08:35:58;26.50;99.90
36654;DHT22;22650;49.350;20.898;2023-07-02T08:38:55;26.80;99.90
36654;DHT22;22650;49.350;20.898;2023-07-02T08:47:11;27.40;99.90
36654;DHT22;22650;49.350;20.898;2023-07-02T08:59:03;27.80;93.50
36654;DHT22;22650;49.350;20.898;2023-07-02T09:01:47;27.90;98.10
36654;DHT22;22650;49.350;20.898;2023-07-02T09:05:13;28.20;97.90
36654;DHT22;22650;49.350;20.898;2023-07-02T09:07:56;28.40;94.90
36654;DHT22;22650;49.350;20.898;2023-07-02T09:10:48;28.60;97.60
36654;DHT22;22650;49.350;20.898;2023-07-02T09:13:23;28.70;96.00
36654;DHT22;22650;49.350;20.898;2023-07-02T09:15:59;28.60;93.30
36654;DHT22;22650;49.350;20.898;2023-07-02T09:18:34;28.70;93.50
36654;DHT22;22650;49.350;20.898;2023-07-02T09:21:11;28.80;92.60
36654;DHT22;22650;49.350;20.898;2023-07-02T09:23:50;29.00;94.20
36654;DHT22;22650;49.350;20.898;2023-07-02T09:26:25;29.10;90.80
36654;DHT22;22650;49.350;20.898;2023-07-02T09:32:36;29.50;86.90
36654;DHT22;22650;49.350;20.898;2023-07-02T09:35:14;29.70;90.90
36654;DHT22;22650;49.350;20.898;2023-07-02T09:37:51;29.80;88.10
36654;DHT22;22650;49.350;20.898;2023-07-02T09:40:26;30.00;86.20
36654;DHT22;22650;49.350;20.898;2023-07-02T09:43:01;30.20;90.30
36654;DHT22;22650;49.350;20.898;2023-07-02T09:45:38;30.30;88.20
36654;DHT22;22650;49.350;20.898;2023-07-02T09:48:14;30.30;85.50
36654;DHT22;22650;49.350;20.898;2023-07-02T09:50:51;30.30;87.90
36654;DHT22;22650;49.350;20.898;2023-07-02T09:53:28;30.20;85.90
36654;DHT22;22650;49.350;20.898;2023-07-02T09:56:02;30.20;85.70
36654;DHT22;22650;49.350;20.898;2023-07-02T09:58:37;30.10;84.80
36654;DHT22;22650;49.350;20.898;2023-07-02T10:01:36;29.90;84.10
36654;DHT22;22650;49.350;20.898;2023-07-02T10:05:07;29.70;82.90
36654;DHT22;22650;49.350;20.898;2023-07-02T10:07:57;29.40;81.70
36654;DHT22;22650;49.350;20.898;2023-07-02T10:14:44;29.00;84.50
36654;DHT22;22650;49.350;20.898;2023-07-02T10:17:26;28.80;82.40
36654;DHT22;22650;49.350;20.898;2023-07-02T10:20:06;28.80;86.40
36654;DHT22;22650;49.350;20.898;2023-07-02T10:22:45;28.70;87.70
36654;DHT22;22650;49.350;20.898;2023-07-02T10:25:30;28.60;87.00
36654;DHT22;22650;49.350;20.898;2023-07-02T10:28:16;28.50;85.80
36654;DHT22;22650;49.350;20.898;2023-07-02T10:31:30;28.50;90.70
36654;DHT22;22650;49.350;20.898;2023-07-02T10:34:16;28.40;89.30
36654;DHT22;22650;49.350;20.898;2023-07-02T10:46:19;28.50;87.30
36654;DHT22;22650;49.350;20.898;2023-07-02T10:48:55;28.60;85.50
36654;DHT22;22650;49.350;20.898;2023-07-02T10:51:30;28.80;86.40
36654;DHT22;22650;49.350;20.898;2023-07-02T10:54:03;28.90;86.70
36654;DHT22;22650;49.350;20.898;2023-07-02T10:56:41;28.90;83.40
36654;DHT22;22650;49.350;20.898;2023-07-02T10:59:23;28.90;82.80
36654;DHT22;22650;49.350;20.898;2023-07-02T11:02:00;28.80;85.10
36654;DHT22;22650;49.350;20.898;2023-07-02T11:04:37;28.80;86.90
36654;DHT22;22650;49.350;20.898;2023-07-02T11:07:14;28.90;87.90
36654;DHT22;22650;49.350;20.898;2023-07-02T11:09:51;29.00;89.70
36654;DHT22;22650;49.350;20.898;2023-07-02T11:12:29;29.10;86.50
36654;DHT22;22650;49.350;20.898;2023-07-02T11:15:10;29.10;84.10
36654;DHT22;22650;49.350;20.898;2023-07-02T11:17:48;29.30;84.80
36654;DHT22;22650;49.350;20.898;2023-07-02T11:20:33;29.30;85.30
36654;DHT22;22650;49.350;20.898;2023-07-02T11:23:18;29.60;80.00
36654;DHT22;22650;49.350;20.898;2023-07-02T11:26:12;29.80;81.10
36654;DHT22;22650;49.350;20.898;2023-07-02T11:28:53;29.90;82.80
36654;DHT22;22650;49.350;20.898;2023-07-02T11:31:42;29.80;77.80
36654;DHT22;22650;49.350;20.898;2023-07-02T11:59:22;28.30;81.70
36654;DHT22;22650;49.350;20.898;2023-07-02T12:47:43;26.10;98.30
36654;DHT22;22650;49.350;20.898;2023-07-02T12:54:40;25.90;99.90
36654;DHT22;22650;49.350;20.898;2023-07-02T12:57:21;25.80;99.90
36654;DHT22;22650;49.350;20.898;2023-07-02T13:00:38;25.70;99.90
36654;DHT22;22650;49.350;20.898;2023-07-02T13:03:22;25.60;99.90
36654;DHT22;22650;49.350;20.898;2023-07-02T13:06:04;25.60;99.90
36654;DHT22;22650;49.350;20.898;2023-07-02T13:14:10;25.50;99.90
36654;DHT22;22650;49.350;20.898;2023-07-02T13:17:04;25.50;99.90
36654;DHT22;22650;49.350;20.898;2023-07-02T13:19:41;25.50;99.90
36654;DHT22;22650;49.350;20.898;2023-07-02T13:22:16;25.50;99.90
36654;DHT22;22650;49.350;20.898;2023-07-02T13:24:53;25.50;99.90
36654;DHT22;22650;49.350;20.898;2023-07-02T13:27:32;25.60;99.90
36654;DHT22;22650;49.350;20.898;2023-07-02T13:30:08;25.50;99.90
36654;DHT22;22650;49.350;20.898;2023-07-02T13:32:42;25.50;99.90
36654;DHT22;22650;49.350;20.898;2023-07-02T13:35:18;25.50;99.90
36654;DHT22;22650;49.350;20.898;2023-07-02T13:37:52;25.50;99.90
36654;DHT22;22650;49.350;20.898;2023-07-02T13:40:27;25.50;99.90
36654;DHT22;22650;49.350;20.898;2023-07-02T13:43:02;25.50;99.90
36654;DHT22;22650;49.350;20.898;2023-07-02T13:45:36;25.50;99.90
36654;DHT22;22650;49.350;20.898;2023-07-02T13:48:17;25.40;99.90
36654;DHT22;22650;49.350;20.898;2023-07-02T13:50:53;25.30;99.90
36654;DHT22;22650;49.350;20.898;2023-07-02T13:53:28;25.30;99.90
36654;DHT22;22650;49.350;20.898;2023-07-02T13:56:03;25.20;99.90
36654;DHT22;22650;49.350;20.898;2023-07-02T13:58:59;25.20;99.90
36654;DHT22;22650;49.350;20.898;2023-07-02T14:01:35;25.10;99.90
36654;DHT22;22650;49.350;20.898;2023-07-02T14:04:10;25.10;99.90
36654;DHT22;22650;49.350;20.898;2023-07-02T14:07:02;25.10;99.90
36654;DHT22;22650;49.350;20.898;2023-07-02T14:09:37;25.10;99.90
36654;DHT22;22650;49.350;20.898;2023-07-02T14:12:11;25.10;99.90
36654;DHT22;22650;49.350;20.898;2023-07-02T14:14:48;25.10;99.90
36654;DHT22;22650;49.350;20.898;2023-07-02T14:17:23;25.20;99.90
36654;DHT22;22650;49.350;20.898;2023-07-02T14:20:01;25.20;99.90
36654;DHT22;22650;49.350;20.898;2023-07-02T14:22:37;25.20;99.90
36654;DHT22;22650;49.350;20.898;2023-07-02T14:25:13;25.20;99.90
36654;DHT22;22650;49.350;20.898;2023-07-02T14:28:00;25.20;99.90
36654;DHT22;22650;49.350;20.898;2023-07-02T14:30:39;25.20;99.90
36654;DHT22;22650;49.350;20.898;2023-07-02T14:33:19;25.20;99.90
36654;DHT22;22650;49.350;20.898;2023-07-02T14:35:56;25.10;99.90
36654;DHT22;22650;49.350;20.898;2023-07-02T14:38:31;25.10;99.90
36654;DHT22;22650;49.350;20.898;2023-07-02T14:41:06;25.00;99.90
36654;DHT22;22650;49.350;20.898;2023-07-02T14:43:42;24.90;99.90
36654;DHT22;22650;49.350;20.898;2023-07-02T14:46:18;24.90;99.90
36654;DHT22;22650;49.350;20.898;2023-07-02T14:48:55;24.80;99.90
36654;DHT22;22650;49.350;20.898;2023-07-02T14:51:30;24.80;99.90
36654;DHT22;22650;49.350;20.898;2023-07-02T14:54:06;24.80;99.90
36654;DHT22;22650;49.350;20.898;2023-07-02T14:56:42;24.80;99.90
36654;DHT22;22650;49.350;20.898;2023-07-02T14:59:19;24.80;99.90
36654;DHT22;22650;49.350;20.898;2023-07-02T15:01:58;24.70;99.90
36654;DHT22;22650;49.350;20.898;2023-07-02T15:04:34;24.70;99.90
36654;DHT22;22650;49.350;20.898;2023-07-02T15:07:09;24.70;99.90
36654;DHT22;22650;49.350;20.898;2023-07-02T15:09:50;24.70;99.90
36654;DHT22;22650;49.350;20.898;2023-07-02T15:12:25;24.70;99.90
36654;DHT22;22650;49.350;20.898;2023-07-02T15:15:02;24.60;99.90
36654;DHT22;22650;49.350;20.898;2023-07-02T15:17:42;24.60;99.90
36654;DHT22;22650;49.350;20.898;2023-07-02T15:20:17;24.50;99.90
36654;DHT22;22650;49.350;20.898;2023-07-02T15:23:58;24.50;99.90
36654;DHT22;22650;49.350;20.898;2023-07-02T15:26:33;24.50;99.90
36654;DHT22;22650;49.350;20.898;2023-07-02T15:29:07;24.50;99.90
36654;DHT22;22650;49.350;20.898;2023-07-02T15:31:42;24.50;99.90
36654;DHT22;22650;49.350;20.898;2023-07-02T15:44:32;24.50;99.90
36654;DHT22;22650;49.350;20.898;2023-07-02T15:47:09;24.40;99.90
36654;DHT22;22650;49.350;20.898;2023-07-02T15:49:44;24.30;99.90
36654;DHT22;22650;49.350;20.898;2023-07-02T15:56:14;24.40;99.90
36654;DHT22;22650;49.350;20.898;2023-07-02T15:58:50;24.40;99.90
36654;DHT22;22650;49.350;20.898;2023-07-02T16:01:25;24.40;99.90
36654;DHT22;22650;49.350;20.898;2023-07-02T16:04:00;24.40;99.90
36654;DHT22;22650;49.350;20.898;2023-07-02T16:11:27;24.40;99.90
36654;DHT22;22650;49.350;20.898;2023-07-02T16:14:39;24.40;99.90
36654;DHT22;22650;49.350;20.898;2023-07-02T16:20:31;24.50;99.90
36654;DHT22;22650;49.350;20.898;2023-07-02T16:27:23;24.40;99.90
36654;DHT22;22650;49.350;20.898;2023-07-02T16:30:01;24.10;99.90
36654;DHT22;22650;49.350;20.898;2023-07-02T16:32:40;23.80;99.90
36654;DHT22;22650;49.350;20.898;2023-07-02T16:35:16;23.60;99.90
36654;DHT22;22650;49.350;20.898;2023-07-02T16:37:56;23.40;99.90
36654;DHT22;22650;49.350;20.898;2023-07-02T16:44:43;23.10;99.90
36654;DHT22;22650;49.350;20.898;2023-07-02T16:47:20;23.00;99.90
36654;DHT22;22650;49.350;20.898;2023-07-02T16:49:59;23.00;99.90
36654;DHT22;22650;49.350;20.898;2023-07-02T16:52:33;22.90;99.90
36654;DHT22;22650;49.350;20.898;2023-07-02T16:55:09;23.00;99.90
36654;DHT22;22650;49.350;20.898;2023-07-02T16:57:49;23.00;99.90
36654;DHT22;22650;49.350;20.898;2023-07-02T17:13:50;22.80;99.90
36654;DHT22;22650;49.350;20.898;2023-07-02T17:22:29;22.40;99.90
36654;DHT22;22650;49.350;20.898;2023-07-02T17:25:28;22.20;99.90
36654;DHT22;22650;49.350;20.898;2023-07-02T17:28:02;22.10;99.90
36654;DHT22;22650;49.350;20.898;2023-07-02T17:30:40;22.00;99.90
36654;DHT22;22650;49.350;20.898;2023-07-02T17:33:22;21.90;99.90
36654;DHT22;22650;49.350;20.898;2023-07-02T17:36:17;21.90;99.90
36654;DHT22;22650;49.350;20.898;2023-07-02T17:38:51;21.80;99.90
36654;DHT22;22650;49.350;20.898;2023-07-02T17:41:24;21.70;99.90
36654;DHT22;22650;49.350;20.898;2023-07-02T17:44:04;21.70;99.90
36654;DHT22;22650;49.350;20.898;2023-07-02T17:46:59;21.70;99.90
36654;DHT22;22650;49.350;20.898;2023-07-02T17:50:13;21.70;99.90
36654;DHT22;22650;49.350;20.898;2023-07-02T17:53:03;21.60;99.90
36654;DHT22;22650;49.350;20.898;2023-07-02T17:55:37;21.50;99.90
36654;DHT22;22650;49.350;20.898;2023-07-02T17:58:11;21.50;99.90
36654;DHT22;22650;49.350;20.898;2023-07-02T18:00:47;21.40;99.90
36654;DHT22;22650;49.350;20.898;2023-07-02T18:03:23;21.40;99.90
36654;DHT22;22650;49.350;20.898;2023-07-02T18:05:57;21.40;99.90
36654;DHT22;22650;49.350;20.898;2023-07-02T18:08:31;21.30;99.90
36654;DHT22;22650;49.350;20.898;2023-07-02T18:11:05;21.30;99.90
36654;DHT22;22650;49.350;20.898;2023-07-02T18:13:39;21.20;99.90
36654;DHT22;22650;49.350;20.898;2023-07-02T18:16:13;21.20;99.90
36654;DHT22;22650;49.350;20.898;2023-07-02T18:18:49;21.10;99.90
36654;DHT22;22650;49.350;20.898;2023-07-02T18:21:23;21.00;99.90
36654;DHT22;22650;49.350;20.898;2023-07-02T18:23:57;21.00;99.90
36654;DHT22;22650;49.350;20.898;2023-07-02T18:26:33;21.00;99.90
36654;DHT22;22650;49.350;20.898;2023-07-02T18:29:07;20.90;99.90
36654;DHT22;22650;49.350;20.898;2023-07-02T18:31:41;20.80;99.90
36654;DHT22;22650;49.350;20.898;2023-07-02T18:34:17;20.70;99.90
36654;DHT22;22650;49.350;20.898;2023-07-02T18:36:51;20.70;99.90
36654;DHT22;22650;49.350;20.898;2023-07-02T18:39:28;20.60;99.90
36654;DHT22;22650;49.350;20.898;2023-07-02T18:42:06;20.50;99.90
36654;DHT22;22650;49.350;20.898;2023-07-02T18:44:42;20.40;99.90
36654;DHT22;22650;49.350;20.898;2023-07-02T18:47:16;20.30;99.90
36654;DHT22;22650;49.350;20.898;2023-07-02T18:49:56;20.20;99.90
36654;DHT22;22650;49.350;20.898;2023-07-02T18:52:31;20.20;99.90
36654;DHT22;22650;49.350;20.898;2023-07-02T18:55:06;20.10;99.90
36654;DHT22;22650;49.350;20.898;2023-07-02T18:57:41;20.00;99.90
36654;DHT22;22650;49.350;20.898;2023-07-02T19:00:18;19.90;99.90
36654;DHT22;22650;49.350;20.898;2023-07-02T19:02:53;19.80;99.90
36654;DHT22;22650;49.350;20.898;2023-07-02T19:05:31;19.70;99.90
36654;DHT22;22650;49.350;20.898;2023-07-02T19:08:06;19.60;99.90
36654;DHT22;22650;49.350;20.898;2023-07-02T19:10:41;19.40;99.90
36654;DHT22;22650;49.350;20.898;2023-07-02T19:13:15;19.40;99.90
36654;DHT22;22650;49.350;20.898;2023-07-02T19:15:49;19.20;99.90
36654;DHT22;22650;49.350;20.898;2023-07-02T19:18:24;19.10;99.90
36654;DHT22;22650;49.350;20.898;2023-07-02T19:21:00;19.00;99.90
36654;DHT22;22650;49.350;20.898;2023-07-02T19:23:34;19.00;99.90
36654;DHT22;22650;49.350;20.898;2023-07-02T19:26:08;18.90;99.90
36654;DHT22;22650;49.350;20.898;2023-07-02T19:28:42;18.80;99.90
36654;DHT22;22650;49.350;20.898;2023-07-02T19:31:16;18.70;99.90
36654;DHT22;22650;49.350;20.898;2023-07-02T19:33:50;18.70;99.90
36654;DHT22;22650;49.350;20.898;2023-07-02T19:36:26;18.60;99.90
36654;DHT22;22650;49.350;20.898;2023-07-02T19:39:00;18.60;99.90
36654;DHT22;22650;49.350;20.898;2023-07-02T19:41:34;18.50;99.90
36654;DHT22;22650;49.350;20.898;2023-07-02T19:44:08;18.50;99.90
36654;DHT22;22650;49.350;20.898;2023-07-02T19:46:42;18.50;99.90
36654;DHT22;22650;49.350;20.898;2023-07-02T19:49:17;18.50;99.90
36654;DHT22;22650;49.350;20.898;2023-07-02T19:51:52;18.40;99.90
36654;DHT22;22650;49.350;20.898;2023-07-02T19:54:26;18.40;99.90
36654;DHT22;22650;49.350;20.898;2023-07-02T19:57:00;18.30;99.90
36654;DHT22;22650;49.350;20.898;2023-07-02T19:59:34;18.30;99.90
36654;DHT22;22650;49.350;20.898;2023-07-02T20:02:09;18.30;99.90
36654;DHT22;22650;49.350;20.898;2023-07-02T20:04:46;18.20;99.90
36654;DHT22;22650;49.350;20.898;2023-07-02T20:07:30;18.20;99.90
36654;DHT22;22650;49.350;20.898;2023-07-02T20:10:04;18.10;99.90
36654;DHT22;22650;49.350;20.898;2023-07-02T20:12:38;18.10;99.90
36654;DHT22;22650;49.350;20.898;2023-07-02T20:15:12;18.00;99.90
36654;DHT22;22650;49.350;20.898;2023-07-02T20:17:46;18.00;99.90
36654;DHT22;22650;49.350;20.898;2023-07-02T20:20:21;18.00;99.90
36654;DHT22;22650;49.350;20.898;2023-07-02T20:22:58;17.90;99.90
36654;DHT22;22650;49.350;20.898;2023-07-02T20:25:35;17.80;99.90
36654;DHT22;22650;49.350;20.898;2023-07-02T20:28:12;17.80;99.90
36654;DHT22;22650;49.350;20.898;2023-07-02T20:30:46;17.70;99.90
36654;DHT22;22650;49.350;20.898;2023-07-02T20:33:20;17.70;99.90
36654;DHT22;22650;49.350;20.898;2023-07-02T20:35:54;17.60;99.90
36654;DHT22;22650;49.350;20.898;2023-07-02T20:38:29;17.50;99.90
36654;DHT22;22650;49.350;20.898;2023-07-02T20:41:03;17.40;99.90
36654;DHT22;22650;49.350;20.898;2023-07-02T20:43:37;17.30;99.90
36654;DHT22;22650;49.350;20.898;2023-07-02T20:46:15;17.30;99.90
36654;DHT22;22650;49.350;20.898;2023-07-02T20:48:49;17.20;99.90
36654;DHT22;22650;49.350;20.898;2023-07-02T20:51:24;17.10;99.90
36654;DHT22;22650;49.350;20.898;2023-07-02T20:54:00;17.00;99.90
36654;DHT22;22650;49.350;20.898;2023-07-02T20:56:34;16.90;99.90
36654;DHT22;22650;49.350;20.898;2023-07-02T20:59:08;16.80;99.90
36654;DHT22;22650;49.350;20.898;2023-07-02T21:01:42;16.70;99.90
36654;DHT22;22650;49.350;20.898;2023-07-02T21:04:16;16.70;99.90
36654;DHT22;22650;49.350;20.898;2023-07-02T21:06:50;16.50;99.90
36654;DHT22;22650;49.350;20.898;2023-07-02T21:09:26;16.50;99.90
36654;DHT22;22650;49.350;20.898;2023-07-02T21:12:01;16.40;99.90
36654;DHT22;22650;49.350;20.898;2023-07-02T21:14:35;16.20;99.90
36654;DHT22;22650;49.350;20.898;2023-07-02T21:17:09;16.20;99.90
36654;DHT22;22650;49.350;20.898;2023-07-02T21:19:44;16.10;99.90
36654;DHT22;22650;49.350;20.898;2023-07-02T21:22:18;16.00;99.90
36654;DHT22;22650;49.350;20.898;2023-07-02T21:24:53;15.90;99.90
36654;DHT22;22650;49.350;20.898;2023-07-02T21:27:28;15.80;99.90
36654;DHT22;22650;49.350;20.898;2023-07-02T21:30:03;15.80;99.90
36654;DHT22;22650;49.350;20.898;2023-07-02T21:32:37;15.70;99.90
36654;DHT22;22650;49.350;20.898;2023-07-02T21:35:11;15.60;99.90
36654;DHT22;22650;49.350;20.898;2023-07-02T21:37:45;15.60;99.90
36654;DHT22;22650;49.350;20.898;2023-07-02T21:40:20;15.50;99.90
36654;DHT22;22650;49.350;20.898;2023-07-02T21:42:54;15.40;99.90
36654;DHT22;22650;49.350;20.898;2023-07-02T21:45:27;15.30;99.90
36654;DHT22;22650;49.350;20.898;2023-07-02T21:48:01;15.30;99.90
36654;DHT22;22650;49.350;20.898;2023-07-02T21:50:36;15.20;99.90
36654;DHT22;22650;49.350;20.898;2023-07-02T21:53:11;15.10;99.90
36654;DHT22;22650;49.350;20.898;2023-07-02T21:55:50;15.00;99.90
36654;DHT22;22650;49.350;20.898;2023-07-02T21:58:33;15.00;99.90
36654;DHT22;22650;49.350;20.898;2023-07-02T22:01:10;14.90;99.90
36654;DHT22;22650;49.350;20.898;2023-07-02T22:03:45;14.80;99.90
36654;DHT22;22650;49.350;20.898;2023-07-02T22:06:20;14.80;99.90
36654;DHT22;22650;49.350;20.898;2023-07-02T22:08:54;14.70;99.90
36654;DHT22;22650;49.350;20.898;2023-07-02T22:11:30;14.70;99.90
36654;DHT22;22650;49.350;20.898;2023-07-02T22:14:05;14.60;99.90
36654;DHT22;22650;49.350;20.898;2023-07-02T22:16:39;14.60;99.90
36654;DHT22;22650;49.350;20.898;2023-07-02T22:19:14;14.50;99.90
36654;DHT22;22650;49.350;20.898;2023-07-02T22:21:52;14.40;99.90
36654;DHT22;22650;49.350;20.898;2023-07-02T22:24:32;14.40;99.90
36654;DHT22;22650;49.350;20.898;2023-07-02T22:27:08;14.40;99.90
36654;DHT22;22650;49.350;20.898;2023-07-02T22:29:42;14.30;99.90
36654;DHT22;22650;49.350;20.898;2023-07-02T22:32:16;14.30;99.90
36654;DHT22;22650;49.350;20.898;2023-07-02T22:34:54;14.20;99.90
36654;DHT22;22650;49.350;20.898;2023-07-02T22:41:06;14.00;99.90
36654;DHT22;22650;49.350;20.898;2023-07-02T22:43:42;13.90;99.90
36654;DHT22;22650;49.350;20.898;2023-07-02T22:46:17;13.90;99.90
36654;DHT22;22650;49.350;20.898;2023-07-02T22:48:52;13.80;99.90
36654;DHT22;22650;49.350;20.898;2023-07-02T22:51:26;13.80;99.90
36654;DHT22;22650;49.350;20.898;2023-07-02T22:53:59;13.70;99.90
36654;DHT22;22650;49.350;20.898;2023-07-02T22:56:33;13.70;99.90
36654;DHT22;22650;49.350;20.898;2023-07-02T22:59:08;13.60;99.90
36654;DHT22;22650;49.350;20.898;2023-07-02T23:01:42;13.50;99.90
36654;DHT22;22650;49.350;20.898;2023-07-02T23:04:19;13.50;99.90
36654;DHT22;22650;49.350;20.898;2023-07-02T23:06:56;13.40;99.90
36654;DHT22;22650;49.350;20.898;2023-07-02T23:09:30;13.40;99.90
36654;DHT22;22650;49.350;20.898;2023-07-02T23:12:05;13.40;99.90
36654;DHT22;22650;49.350;20.898;2023-07-02T23:14:41;13.30;99.90
36654;DHT22;22650;49.350;20.898;2023-07-02T23:17:15;13.30;99.90
36654;DHT22;22650;49.350;20.898;2023-07-02T23:19:56;13.20;99.90
36654;DHT22;22650;49.350;20.898;2023-07-02T23:22:31;13.20;99.90
36654;DHT22;22650;49.350;20.898;2023-07-02T23:25:08;13.10;99.90
36654;DHT22;22650;49.350;20.898;2023-07-02T23:27:45;13.10;99.90
36654;DHT22;22650;49.350;20.898;2023-07-02T23:30:23;13.00;99.90
36654;DHT22;22650;49.350;20.898;2023-07-02T23:33:00;13.00;99.90
36654;DHT22;22650;49.350;20.898;2023-07-02T23:35:39;13.00;99.90
36654;DHT22;22650;49.350;20.898;2023-07-02T23:38:18;12.90;99.90
36654;DHT22;22650;49.350;20.898;2023-07-02T23:40:55;12.90;99.90
36654;DHT22;22650;49.350;20.898;2023-07-02T23:43:33;12.80;99.90
36654;DHT22;22650;49.350;20.898;2023-07-02T23:46:09;12.80;99.90
36654;DHT22;22650;49.350;20.898;2023-07-02T23:48:44;12.70;99.90
36654;DHT22;22650;49.350;20.898;2023-07-02T23:51:18;12.70;99.90
36654;DHT22;22650;49.350;20.898;2023-07-02T23:53:55;12.70;99.90
36654;DHT22;22650;49.350;20.898;2023-07-02T23:56:30;12.60;99.90
36654;DHT22;22650;49.350;20.898;2023-07-02T23:59:07;12.60;99.90
